Time;durP1;ratioP1;P1;durP2;ratioP2;P2;SDS_P1;SDS_P2;PMS_P1;PMS_P2;Temp;Humidity;BMP_temperature;BMP_pressure;BME280_temperature;BME280_humidity;BME280_pressure;Samples;Min_cycle;Max_cycle;Signal;HPM_P1;HPM_P2
2021/12/26 00:02:06;;;;;;;1.30;1.00;;;;;;;;;;5006597;28;20228;-60
2021/12/26 00:04:33;;;;;;;0.17;0.17;;;;;;;;;;5006022;28;20251;-59
2021/12/26 00:07:01;;;;;;;1.27;0.90;;;;;;;;;;5004820;28;20216;-59
2021/12/26 00:09:28;;;;;;;3.70;1.33;;;;;;;;;;5006053;28;20213;-58
2021/12/26 00:11:56;;;;;;;1.33;0.67;;;;;;;;;;5006491;28;20565;-58
2021/12/26 00:14:24;;;;;;;1.10;1.10;;;;;;;;;;5006031;28;20787;-59
2021/12/26 00:16:51;;;;;;;2.23;1.60;;;;;;;;;;5006326;28;20324;-59
2021/12/26 00:19:18;;;;;;;2.23;1.20;;;;;;;;;;5005218;28;20209;-59
2021/12/26 00:21:47;;;;;;;1.23;1.13;;;;;;;;;;5005434;28;20205;-58
2021/12/26 00:24:14;;;;;;;3.57;1.80;;;;;;;;;;5007173;28;20217;-59
2021/12/26 00:26:41;;;;;;;0.40;0.40;;;;;;;;;;5008249;28;20805;-59
2021/12/26 00:29:08;;;;;;;0.20;0.20;;;;;;;;;;5007355;28;20212;-59
2021/12/26 00:31:36;;;;;;;2.10;0.53;;;;;;;;;;5007700;28;20209;-59
2021/12/26 00:34:04;;;;;;;1.37;1.27;;;;;;;;;;5009092;28;20255;-59
2021/12/26 00:36:31;;;;;;;1.20;1.10;;;;;;;;;;5006107;28;20669;-59
2021/12/26 00:38:58;;;;;;;0.63;0.63;;;;;;;;;;5009403;28;20213;-58
2021/12/26 00:41:25;;;;;;;2.07;1.77;;;;;;;;;;5009172;28;20208;-59
2021/12/26 00:43:53;;;;;;;2.83;0.93;;;;;;;;;;5009531;28;20683;-59
2021/12/26 00:46:20;;;;;;;2.73;1.20;;;;;;;;;;5009812;28;20209;-58
2021/12/26 00:48:48;;;;;;;1.17;1.17;;;;;;;;;;5006645;28;20220;-59
2021/12/26 00:51:15;;;;;;;0.63;0.63;;;;;;;;;;5009431;28;20233;-58
2021/12/26 00:53:42;;;;;;;0.20;0.20;;;;;;;;;;5009874;28;20225;-58
2021/12/26 00:56:09;;;;;;;0.30;0.30;;;;;;;;;;5009408;28;20220;-58
2021/12/26 00:58:36;;;;;;;0.27;0.27;;;;;;;;;;5009827;28;20217;-59
2021/12/26 01:01:04;;;;;;;1.30;1.23;;;;;;;;;;5009383;28;20212;-58
2021/12/26 01:03:31;;;;;;;3.70;0.93;;;;;;;;;;5009718;28;20201;-59
2021/12/26 01:05:59;;;;;;;0.60;0.60;;;;;;;;;;5009272;28;20268;-59
2021/12/26 01:08:30;;;;;;;0.13;0.13;;;;;;;;;;5009793;28;20232;-58
2021/12/26 01:11:01;;;;;;;1.77;0.80;;;;;;;;;;5009535;28;20224;-58
2021/12/26 01:13:31;;;;;;;0.93;0.20;;;;;;;;;;5009552;28;20255;-58
2021/12/26 01:16:00;;;;;;;1.07;0.93;;;;;;;;;;5009019;28;20304;-58
2021/12/26 01:18:28;;;;;;;2.67;1.37;;;;;;;;;;5009234;28;20258;-58
2021/12/26 01:21:00;;;;;;;0.23;0.23;;;;;;;;;;5009358;28;20217;-58
2021/12/26 01:23:30;;;;;;;0.97;0.70;;;;;;;;;;5007487;28;20209;-58
2021/12/26 01:25:58;;;;;;;0.80;0.80;;;;;;;;;;5009261;28;20209;-58
2021/12/26 01:28:28;;;;;;;1.50;1.40;;;;;;;;;;5007307;28;20672;-58
2021/12/26 01:30:55;;;;;;;1.13;1.13;;;;;;;;;;5008484;28;20869;-58
2021/12/26 01:33:22;;;;;;;0.63;0.63;;;;;;;;;;5008104;28;20228;-58
2021/12/26 01:35:50;;;;;;;1.10;1.10;;;;;;;;;;5008290;28;20252;-59
2021/12/26 01:38:17;;;;;;;5.33;1.73;;;;;;;;;;5008562;28;20201;-58
2021/12/26 01:40:49;;;;;;;1.27;0.60;;;;;;;;;;5008380;28;20225;-59
2021/12/26 01:43:17;;;;;;;1.23;0.83;;;;;;;;;;5007603;28;20208;-58
2021/12/26 01:45:44;;;;;;;0.87;0.87;;;;;;;;;;5007243;28;20219;-58
2021/12/26 01:48:12;;;;;;;3.73;1.67;;;;;;;;;;5007965;28;20208;-58
2021/12/26 01:50:39;;;;;;;1.67;1.47;;;;;;;;;;5007385;28;20324;-59
2021/12/26 01:53:07;;;;;;;1.57;1.47;;;;;;;;;;5007493;28;20224;-59
2021/12/26 01:55:40;;;;;;;0.70;0.67;;;;;;;;;;5005268;28;20324;-58
2021/12/26 01:58:10;;;;;;;0.27;0.27;;;;;;;;;;5007536;28;20216;-58
2021/12/26 02:00:37;;;;;;;2.90;0.77;;;;;;;;;;5007391;28;20575;-58
2021/12/26 02:03:05;;;;;;;0.97;0.60;;;;;;;;;;5006927;28;20248;-59
2021/12/26 02:05:32;;;;;;;0.60;0.60;;;;;;;;;;5007797;28;20205;-57
2021/12/26 02:07:59;;;;;;;1.37;1.27;;;;;;;;;;5008288;28;20208;-58
2021/12/26 02:10:26;;;;;;;1.40;1.30;;;;;;;;;;5008258;28;20590;-58
2021/12/26 02:12:53;;;;;;;1.40;1.30;;;;;;;;;;5007907;28;20239;-58
2021/12/26 02:15:21;;;;;;;3.60;0.83;;;;;;;;;;5007601;28;20229;-58
2021/12/26 02:17:49;;;;;;;0.83;0.83;;;;;;;;;;5007111;28;20205;-58
2021/12/26 02:20:30;;;;;;;1.17;1.10;;;;;;;;;;5007821;28;20206;-59
2021/12/26 02:23:03;;;;;;;0.70;0.40;;;;;;;;;;5007944;28;20443;-58
2021/12/26 02:27:31;;;;;;;3.00;2.03;;;;;;;;;;5008030;28;20608;-58
2021/12/26 02:28:19;;;;;;;0.67;0.67;;;;;;;;;;5005463;28;20240;-58
2021/12/26 02:30:47;;;;;;;1.10;1.10;;;;;;;;;;5011393;28;20575;-58
2021/12/26 02:33:15;;;;;;;1.33;1.27;;;;;;;;;;5012826;28;20197;-59
2021/12/26 02:35:44;;;;;;;1.50;1.30;;;;;;;;;;5009672;28;20275;-59
2021/12/26 02:38:11;;;;;;;1.03;0.80;;;;;;;;;;5012948;28;20209;-57
2021/12/26 02:40:38;;;;;;;1.10;0.90;;;;;;;;;;5012613;28;20224;-59
2021/12/26 02:43:06;;;;;;;0.53;0.53;;;;;;;;;;5011593;28;20213;-57
2021/12/26 02:45:33;;;;;;;2.47;1.23;;;;;;;;;;5012226;28;20216;-57
2021/12/26 02:48:00;;;;;;;0.87;0.87;;;;;;;;;;5012451;28;20217;-57
2021/12/26 02:50:28;;;;;;;5.13;1.23;;;;;;;;;;5011957;28;20228;-57
2021/12/26 02:52:58;;;;;;;1.33;1.23;;;;;;;;;;5012425;28;20208;-57
2021/12/26 02:55:25;;;;;;;0.80;0.80;;;;;;;;;;5012142;28;20225;-57
2021/12/26 02:57:53;;;;;;;1.63;0.70;;;;;;;;;;5012470;28;20209;-57
2021/12/26 03:00:23;;;;;;;1.13;1.03;;;;;;;;;;5012443;28;20223;-58
2021/12/26 03:02:52;;;;;;;1.60;1.23;;;;;;;;;;5011889;28;20201;-60
2021/12/26 03:05:19;;;;;;;1.50;1.40;;;;;;;;;;5011939;28;20209;-57
2021/12/26 03:07:47;;;;;;;1.43;0.37;;;;;;;;;;5011973;28;20686;-57
2021/12/26 03:10:21;;;;;;;2.60;1.57;;;;;;;;;;5012137;28;20212;-58
2021/12/26 03:12:49;;;;;;;0.87;0.80;;;;;;;;;;5012137;28;20205;-58
2021/12/26 03:15:16;;;;;;;0.20;0.20;;;;;;;;;;5011950;28;20232;-57
2021/12/26 03:17:43;;;;;;;2.37;1.77;;;;;;;;;;5012153;28;20580;-60
2021/12/26 03:20:10;;;;;;;1.17;1.17;;;;;;;;;;5011674;28;20205;-57
2021/12/26 03:22:37;;;;;;;2.10;1.37;;;;;;;;;;5011268;28;20216;-57
2021/12/26 03:25:05;;;;;;;1.80;1.17;;;;;;;;;;5011482;28;20308;-57
2021/12/26 03:27:33;;;;;;;0.93;0.93;;;;;;;;;;5011399;28;20650;-57
2021/12/26 03:30:00;;;;;;;1.40;1.03;;;;;;;;;;5011956;28;20679;-57
2021/12/26 03:32:27;;;;;;;1.20;1.10;;;;;;;;;;5011778;28;20204;-59
2021/12/26 03:34:54;;;;;;;0.50;0.50;;;;;;;;;;5011551;28;20242;-57
2021/12/26 03:37:23;;;;;;;2.17;1.27;;;;;;;;;;5009381;28;20213;-57
2021/12/26 03:39:50;;;;;;;2.17;1.27;;;;;;;;;;5010010;28;20213;-57
2021/12/26 03:42:21;;;;;;;0.40;0.40;;;;;;;;;;5011259;28;20227;-57
2021/12/26 03:44:50;;;;;;;1.00;1.00;;;;;;;;;;5011632;28;20920;-57
2021/12/26 03:47:17;;;;;;;1.03;0.93;;;;;;;;;;5011110;28;20209;-57
2021/12/26 03:49:44;;;;;;;0.87;0.73;;;;;;;;;;5011170;28;20236;-57
2021/12/26 03:52:11;;;;;;;1.70;0.93;;;;;;;;;;5011449;28;20201;-57
2021/12/26 03:54:38;;;;;;;1.40;1.30;;;;;;;;;;5011316;28;20224;-57
2021/12/26 03:57:05;;;;;;;1.07;1.07;;;;;;;;;;5011209;28;20209;-57
2021/12/26 03:59:33;;;;;;;1.50;0.70;;;;;;;;;;5011222;28;20213;-57
2021/12/26 04:02:01;;;;;;;2.93;1.30;;;;;;;;;;5011338;28;20201;-57
2021/12/26 04:04:28;;;;;;;4.37;0.93;;;;;;;;;;5011407;28;20201;-57
2021/12/26 04:06:55;;;;;;;1.90;0.53;;;;;;;;;;5011067;28;20207;-57
2021/12/26 04:09:22;;;;;;;2.07;1.33;;;;;;;;;;5011264;28;20275;-58
2021/12/26 04:11:49;;;;;;;0.73;0.73;;;;;;;;;;5011225;28;20216;-57
2021/12/26 04:14:20;;;;;;;1.73;1.63;;;;;;;;;;5011049;28;20243;-57
2021/12/26 04:16:47;;;;;;;3.73;1.50;;;;;;;;;;5010655;28;20351;-57
2021/12/26 04:19:15;;;;;;;1.87;1.73;;;;;;;;;;5011189;28;20216;-57
2021/12/26 04:21:42;;;;;;;0.90;0.90;;;;;;;;;;5010785;28;20209;-58
2021/12/26 04:24:10;;;;;;;1.27;0.70;;;;;;;;;;5010749;28;20220;-57
2021/12/26 04:26:39;;;;;;;1.03;0.93;;;;;;;;;;5010485;28;20248;-57
2021/12/26 04:29:06;;;;;;;1.17;1.10;;;;;;;;;;5010011;28;20238;-57
2021/12/26 04:31:33;;;;;;;0.90;0.90;;;;;;;;;;5010642;28;20212;-57
2021/12/26 04:34:00;;;;;;;0.67;0.67;;;;;;;;;;4991106;28;20213;-58
2021/12/26 04:36:29;;;;;;;1.63;1.40;;;;;;;;;;5007201;28;20252;-57
2021/12/26 04:38:56;;;;;;;2.00;1.43;;;;;;;;;;5009851;28;20606;-57
2021/12/26 04:41:23;;;;;;;2.10;1.13;;;;;;;;;;5010543;28;20212;-57
2021/12/26 04:43:50;;;;;;;1.23;1.10;;;;;;;;;;5010300;28;20396;-57
2021/12/26 04:46:17;;;;;;;0.57;0.30;;;;;;;;;;5010689;28;20201;-57
2021/12/26 04:48:46;;;;;;;0.70;0.70;;;;;;;;;;5010206;28;20212;-57
2021/12/26 04:51:13;;;;;;;0.97;0.97;;;;;;;;;;5010417;28;20233;-57
2021/12/26 04:53:42;;;;;;;1.03;1.03;;;;;;;;;;5009639;28;20212;-57
2021/12/26 04:56:10;;;;;;;0.30;0.30;;;;;;;;;;5010063;28;20229;-57
2021/12/26 04:58:37;;;;;;;0.40;0.40;;;;;;;;;;5009892;28;20675;-57
2021/12/26 05:01:04;;;;;;;2.83;1.97;;;;;;;;;;5010327;28;21025;-59
2021/12/26 05:03:31;;;;;;;3.20;1.50;;;;;;;;;;5009606;28;20205;-58
2021/12/26 05:05:59;;;;;;;4.23;2.63;;;;;;;;;;5009750;28;20259;-58
2021/12/26 05:08:26;;;;;;;1.63;1.57;;;;;;;;;;5009254;28;20201;-57
2021/12/26 05:10:55;;;;;;;0.33;0.33;;;;;;;;;;5009384;28;20216;-58
2021/12/26 05:13:23;;;;;;;2.50;1.43;;;;;;;;;;5009311;28;20209;-58
2021/12/26 05:15:50;;;;;;;2.03;0.90;;;;;;;;;;5009523;28;20324;-58
2021/12/26 05:18:17;;;;;;;5.70;1.60;;;;;;;;;;5009119;28;20213;-58
2021/12/26 05:20:44;;;;;;;1.80;1.70;;;;;;;;;;5009192;28;20205;-57
2021/12/26 05:23:11;;;;;;;0.63;0.60;;;;;;;;;;5009601;28;20250;-57
2021/12/26 05:25:39;;;;;;;3.80;1.53;;;;;;;;;;5009069;28;20197;-58
2021/12/26 05:28:07;;;;;;;0.87;0.80;;;;;;;;;;5008938;28;20244;-58
2021/12/26 05:30:34;;;;;;;0.53;0.53;;;;;;;;;;5008706;28;20213;-57
2021/12/26 05:33:01;;;;;;;1.83;1.23;;;;;;;;;;5009481;28;20217;-58
2021/12/26 05:35:30;;;;;;;2.73;1.73;;;;;;;;;;5009268;28;20231;-57
2021/12/26 05:37:58;;;;;;;1.60;1.57;;;;;;;;;;5009035;28;20689;-58
2021/12/26 05:40:25;;;;;;;2.10;1.53;;;;;;;;;;5005566;28;20216;-57
2021/12/26 05:42:52;;;;;;;1.30;1.20;;;;;;;;;;5009292;28;20267;-58
2021/12/26 05:45:21;;;;;;;2.27;1.50;;;;;;;;;;5009095;28;20209;-58
2021/12/26 05:47:48;;;;;;;1.20;1.10;;;;;;;;;;5008951;28;20220;-57
2021/12/26 05:50:16;;;;;;;0.83;0.83;;;;;;;;;;5008724;28;20236;-58
2021/12/26 05:52:44;;;;;;;1.23;1.13;;;;;;;;;;5008422;28;20197;-57
2021/12/26 05:55:11;;;;;;;2.07;1.67;;;;;;;;;;5009210;28;20288;-58
2021/12/26 05:57:38;;;;;;;1.47;1.40;;;;;;;;;;5009130;28;20248;-58
2021/12/26 06:00:06;;;;;;;2.50;1.43;;;;;;;;;;5009384;28;20223;-57
2021/12/26 06:02:34;;;;;;;3.10;2.00;;;;;;;;;;5008927;28;20217;-57
2021/12/26 06:05:01;;;;;;;1.10;1.10;;;;;;;;;;5011781;28;20204;-58
2021/12/26 06:07:28;;;;;;;5.87;2.77;;;;;;;;;;5013172;28;20239;-58
2021/12/26 06:09:55;;;;;;;0.93;0.93;;;;;;;;;;5013251;28;20228;-57
2021/12/26 06:12:26;;;;;;;1.67;1.57;;;;;;;;;;5013070;28;20212;-58
2021/12/26 06:14:53;;;;;;;1.80;1.30;;;;;;;;;;5013139;28;20231;-58
2021/12/26 06:17:20;;;;;;;2.50;1.50;;;;;;;;;;5012904;28;20213;-57
2021/12/26 06:19:48;;;;;;;0.80;0.80;;;;;;;;;;5012836;28;20701;-57
2021/12/26 06:22:16;;;;;;;2.90;2.07;;;;;;;;;;5012779;28;20740;-57
2021/12/26 06:24:43;;;;;;;2.07;1.53;;;;;;;;;;5013336;28;20232;-58
2021/12/26 06:27:10;;;;;;;2.43;1.37;;;;;;;;;;5012638;28;20272;-58
2021/12/26 06:29:37;;;;;;;1.83;1.57;;;;;;;;;;5012819;28;20205;-58
2021/12/26 06:32:05;;;;;;;2.07;1.13;;;;;;;;;;5012523;28;20213;-58
2021/12/26 06:34:32;;;;;;;2.20;1.17;;;;;;;;;;5012856;28;20590;-58
2021/12/26 06:37:00;;;;;;;1.80;1.27;;;;;;;;;;5012800;28;20221;-57
2021/12/26 06:39:27;;;;;;;1.17;1.13;;;;;;;;;;5012224;28;20677;-58
2021/12/26 06:41:54;;;;;;;0.77;0.77;;;;;;;;;;4999313;28;20284;-58
2021/12/26 06:44:21;;;;;;;0.70;0.70;;;;;;;;;;5012769;28;20216;-59
2021/12/26 06:46:48;;;;;;;1.97;0.73;;;;;;;;;;5012622;28;20211;-58
2021/12/26 06:49:17;;;;;;;3.33;2.50;;;;;;;;;;5018942;23;20232;-58
2021/12/26 06:51:45;;;;;;;1.77;1.63;;;;;;;;;;5011591;28;20225;-58
2021/12/26 06:54:13;;;;;;;0.63;0.63;;;;;;;;;;5011899;28;20305;-58
2021/12/26 06:56:40;;;;;;;1.73;1.60;;;;;;;;;;5012594;28;20236;-58
2021/12/26 06:59:08;;;;;;;3.73;1.03;;;;;;;;;;5012095;28;20555;-58
2021/12/26 07:01:35;;;;;;;0.43;0.43;;;;;;;;;;5011852;28;20296;-57
2021/12/26 07:04:02;;;;;;;1.53;1.33;;;;;;;;;;5012268;28;20216;-58
2021/12/26 07:06:29;;;;;;;1.63;1.53;;;;;;;;;;5011205;28;20220;-58
2021/12/26 07:08:56;;;;;;;2.17;2.03;;;;;;;;;;4998479;28;20247;-58
2021/12/26 07:11:24;;;;;;;4.50;2.23;;;;;;;;;;5011919;28;20241;-57
2021/12/26 07:13:51;;;;;;;2.10;1.47;;;;;;;;;;5011400;28;20206;-58
2021/12/26 07:16:18;;;;;;;1.33;0.80;;;;;;;;;;5011202;28;20228;-57
2021/12/26 07:18:45;;;;;;;1.77;1.30;;;;;;;;;;5012231;28;20224;-58
2021/12/26 07:21:12;;;;;;;2.63;1.23;;;;;;;;;;5011472;28;20212;-57
2021/12/26 07:23:39;;;;;;;3.37;1.50;;;;;;;;;;5011868;28;20220;-58
2021/12/26 07:26:06;;;;;;;1.00;1.00;;;;;;;;;;5011794;28;20214;-58
2021/12/26 07:28:35;;;;;;;4.03;1.87;;;;;;;;;;5011915;28;20232;-59
2021/12/26 07:31:02;;;;;;;2.60;1.77;;;;;;;;;;5011378;28;20231;-59
2021/12/26 07:33:29;;;;;;;1.60;1.07;;;;;;;;;;5011584;28;20743;-58
2021/12/26 07:35:56;;;;;;;0.77;0.73;;;;;;;;;;5011291;28;20233;-58
2021/12/26 07:38:23;;;;;;;3.43;1.73;;;;;;;;;;5011493;28;20212;-58
2021/12/26 07:40:50;;;;;;;0.97;0.40;;;;;;;;;;5011420;28;20212;-59
2021/12/26 07:43:17;;;;;;;1.53;1.43;;;;;;;;;;5011297;28;20205;-58
2021/12/26 07:45:46;;;;;;;0.70;0.70;;;;;;;;;;5011423;28;20217;-58
2021/12/26 07:48:13;;;;;;;1.43;1.20;;;;;;;;;;5011547;28;20749;-58
2021/12/26 07:50:40;;;;;;;3.70;2.67;;;;;;;;;;4999721;28;20249;-58
2021/12/26 07:53:10;;;;;;;0.50;0.50;;;;;;;;;;4996081;28;20208;-58
2021/12/26 07:55:38;;;;;;;1.27;1.27;;;;;;;;;;5010177;28;20217;-58
2021/12/26 07:58:05;;;;;;;0.70;0.70;;;;;;;;;;5009040;28;20232;-58
2021/12/26 08:00:32;;;;;;;0.80;0.70;;;;;;;;;;5010878;28;20205;-58
2021/12/26 08:03:01;;;;;;;6.47;1.57;;;;;;;;;;5010588;28;20220;-59
2021/12/26 08:05:28;;;;;;;2.03;1.33;;;;;;;;;;5010636;28;20201;-58
2021/12/26 08:07:55;;;;;;;1.83;0.83;;;;;;;;;;5011069;28;20213;-57
2021/12/26 08:10:23;;;;;;;3.20;2.80;;;;;;;;;;5011002;28;20216;-59
2021/12/26 08:12:50;;;;;;;2.10;1.23;;;;;;;;;;5011135;28;20224;-58
2021/12/26 08:15:17;;;;;;;2.13;2.03;;;;;;;;;;5008527;28;20671;-58
2021/12/26 08:17:44;;;;;;;1.93;1.03;;;;;;;;;;5011137;28;20212;-58
2021/12/26 08:20:13;;;;;;;2.43;2.23;;;;;;;;;;5010804;28;20216;-58
2021/12/26 08:22:40;;;;;;;1.13;1.13;;;;;;;;;;4997880;28;20221;-58
2021/12/26 08:25:07;;;;;;;2.40;2.20;;;;;;;;;;5008447;28;20213;-59
2021/12/26 08:27:35;;;;;;;2.33;0.90;;;;;;;;;;5009951;28;20209;-58
2021/12/26 08:30:02;;;;;;;2.37;0.90;;;;;;;;;;5010609;28;20201;-58
2021/12/26 08:32:32;;;;;;;1.17;1.07;;;;;;;;;;5010877;28;20211;-58
2021/12/26 08:35:00;;;;;;;3.27;1.80;;;;;;;;;;5009817;28;20232;-58
2021/12/26 08:37:29;;;;;;;2.67;1.50;;;;;;;;;;5010576;28;20237;-58
2021/12/26 08:39:56;;;;;;;1.97;1.80;;;;;;;;;;5009891;28;20759;-58
2021/12/26 08:42:23;;;;;;;5.47;1.67;;;;;;;;;;5009892;28;20205;-58
2021/12/26 08:44:52;;;;;;;5.10;2.70;;;;;;;;;;4998796;28;20216;-58
2021/12/26 08:47:19;;;;;;;0.80;0.77;;;;;;;;;;5000594;28;20197;-58
2021/12/26 08:49:46;;;;;;;1.43;1.23;;;;;;;;;;4999929;28;20769;-58
2021/12/26 08:52:13;;;;;;;4.17;2.53;;;;;;;;;;5001199;28;20237;-58
2021/12/26 08:54:42;;;;;;;2.10;2.00;;;;;;;;;;5002942;28;20209;-58
2021/12/26 08:57:09;;;;;;;1.83;1.60;;;;;;;;;;4999477;28;20221;-59
2021/12/26 08:59:37;;;;;;;2.23;1.87;;;;;;;;;;4999697;28;20202;-59
2021/12/26 09:02:07;;;;;;;3.90;1.23;;;;;;;;;;4997391;28;20216;-58
2021/12/26 09:04:34;;;;;;;3.53;1.67;;;;;;;;;;4999774;28;20774;-59
2021/12/26 09:07:02;;;;;;;1.70;1.63;;;;;;;;;;5000302;28;20206;-59
2021/12/26 09:09:29;;;;;;;3.13;1.60;;;;;;;;;;4999763;28;20204;-59
2021/12/26 09:11:59;;;;;;;12.27;5.17;;;;;;;;;;5002024;28;20676;-59
2021/12/26 09:14:28;;;;;;;3.80;1.93;;;;;;;;;;4996964;28;20301;-59
2021/12/26 09:16:55;;;;;;;2.30;2.07;;;;;;;;;;5000194;28;20722;-58
2021/12/26 09:19:23;;;;;;;0.83;0.80;;;;;;;;;;5002235;28;20212;-58
2021/12/26 09:21:50;;;;;;;1.87;1.57;;;;;;;;;;4998420;28;20252;-58
2021/12/26 09:24:17;;;;;;;0.73;0.70;;;;;;;;;;4998210;28;20219;-58
2021/12/26 09:26:44;;;;;;;4.33;3.00;;;;;;;;;;4999112;28;20208;-58
2021/12/26 09:29:12;;;;;;;1.70;1.10;;;;;;;;;;4996586;28;20633;-59
2021/12/26 09:31:39;;;;;;;3.57;1.67;;;;;;;;;;4998720;28;20213;-59
2021/12/26 09:34:07;;;;;;;2.50;1.50;;;;;;;;;;4998523;28;20209;-59
2021/12/26 09:36:35;;;;;;;3.90;2.20;;;;;;;;;;5000317;28;20228;-59
2021/12/26 09:39:02;;;;;;;0.43;0.43;;;;;;;;;;4995689;28;20197;-59
2021/12/26 09:41:30;;;;;;;4.10;2.27;;;;;;;;;;4995722;28;20206;-59
2021/12/26 09:43:57;;;;;;;2.67;1.80;;;;;;;;;;4997034;28;20207;-60
2021/12/26 09:49:09;;;;;;;3.50;2.70;;;;;;;;;;4994725;28;20225;-59
2021/12/26 09:51:37;;;;;;;3.97;3.07;;;;;;;;;;5008362;28;20245;-59
2021/12/26 09:54:04;;;;;;;0.20;0.20;;;;;;;;;;4997684;28;20210;-59
2021/12/26 09:56:32;;;;;;;2.80;2.60;;;;;;;;;;4992311;28;20246;-60
2021/12/26 09:59:00;;;;;;;2.93;1.77;;;;;;;;;;5009846;28;20210;-60
2021/12/26 10:01:33;;;;;;;2.10;1.97;;;;;;;;;;4993080;28;20206;-59
2021/12/26 10:04:04;;;;;;;5.53;3.07;;;;;;;;;;5009441;28;20217;-60
2021/12/26 10:06:35;;;;;;;1.30;1.27;;;;;;;;;;4993962;28;20198;-59
2021/12/26 10:09:03;;;;;;;0.47;0.47;;;;;;;;;;5009309;28;20628;-60
2021/12/26 10:11:31;;;;;;;9.53;4.00;;;;;;;;;;5009158;28;20244;-59
2021/12/26 10:13:59;;;;;;;3.83;2.37;;;;;;;;;;5009254;28;20216;-59
2021/12/26 10:16:27;;;;;;;1.80;1.63;;;;;;;;;;5007485;28;20234;-60
2021/12/26 10:18:56;;;;;;;4.40;2.77;;;;;;;;;;5009408;28;20214;-59
2021/12/26 10:21:28;;;;;;;2.10;1.90;;;;;;;;;;5008914;28;20213;-60
2021/12/26 10:23:56;;;;;;;1.10;1.10;;;;;;;;;;4999939;28;20210;-59
2021/12/26 10:26:23;;;;;;;9.43;2.37;;;;;;;;;;5003500;28;20203;-59
2021/12/26 10:29:09;;;;;;;5.77;3.77;;;;;;;;;;5005371;28;20210;-59
2021/12/26 10:31:37;;;;;;;2.63;2.03;;;;;;;;;;5009082;28;20201;-59
2021/12/26 10:34:05;;;;;;;3.53;3.07;;;;;;;;;;5008513;28;20209;-62
2021/12/26 10:36:32;;;;;;;4.13;1.90;;;;;;;;;;4999753;28;20223;-59
2021/12/26 10:39:09;;;;;;;2.43;2.23;;;;;;;;;;4997115;28;20215;-59
2021/12/26 10:41:41;;;;;;;1.60;1.30;;;;;;;;;;4993573;28;20201;-58
2021/12/26 10:44:08;;;;;;;1.07;1.07;;;;;;;;;;5005126;28;20216;-59
2021/12/26 10:46:37;;;;;;;3.47;2.43;;;;;;;;;;5008272;28;20213;-60
2021/12/26 10:49:19;;;;;;;1.33;1.20;;;;;;;;;;5009030;28;20759;-59
2021/12/26 10:51:47;;;;;;;1.93;1.83;;;;;;;;;;5010482;28;20206;-59
2021/12/26 10:54:14;;;;;;;2.63;1.83;;;;;;;;;;5013058;28;20704;-61
2021/12/26 10:56:41;;;;;;;1.90;1.43;;;;;;;;;;5008111;28;20240;-58
2021/12/26 10:59:21;;;;;;;4.57;3.20;;;;;;;;;;4993072;28;20211;-59
2021/12/26 11:01:48;;;;;;;3.80;2.23;;;;;;;;;;5001497;28;20201;-60
2021/12/26 11:04:15;;;;;;;1.30;0.83;;;;;;;;;;5009548;28;20211;-59
2021/12/26 11:07:00;;;;;;;5.57;2.90;;;;;;;;;;5000392;28;20204;-59
2021/12/26 11:09:27;;;;;;;2.70;1.80;;;;;;;;;;5002768;28;20209;-59
2021/12/26 11:12:05;;;;;;;2.87;2.60;;;;;;;;;;5002213;28;20212;-58
2021/12/26 11:14:32;;;;;;;3.73;2.53;;;;;;;;;;5001823;28;20207;-58
2021/12/26 11:16:59;;;;;;;1.57;1.47;;;;;;;;;;5000742;28;20235;-59
2021/12/26 11:19:50;;;;;;;2.43;2.17;;;;;;;;;;5004069;28;20210;-59
2021/12/26 11:22:19;;;;;;;3.50;2.60;;;;;;;;;;4991169;28;20204;-59
2021/12/26 11:24:46;;;;;;;6.37;2.90;;;;;;;;;;5001459;28;20662;-59
2021/12/26 11:27:13;;;;;;;4.03;2.40;;;;;;;;;;5001412;28;20202;-59
2021/12/26 11:29:40;;;;;;;4.13;1.83;;;;;;;;;;5001173;28;20214;-59
2021/12/26 11:32:07;;;;;;;1.00;0.93;;;;;;;;;;4997650;28;20211;-58
2021/12/26 11:34:35;;;;;;;2.97;1.87;;;;;;;;;;5002556;28;20215;-61
2021/12/26 11:37:02;;;;;;;3.40;2.80;;;;;;;;;;5002025;28;20236;-59
2021/12/26 11:39:31;;;;;;;1.37;1.23;;;;;;;;;;4999977;28;20202;-59
2021/12/26 11:42:03;;;;;;;2.20;2.00;;;;;;;;;;5003222;28;20203;-59
2021/12/26 11:44:41;;;;;;;5.57;1.93;;;;;;;;;;5000181;28;20693;-59
2021/12/26 11:47:14;;;;;;;2.57;2.07;;;;;;;;;;5001523;28;20639;-59
2021/12/26 11:50:04;;;;;;;3.83;3.00;;;;;;;;;;5003583;28;20721;-59
2021/12/26 11:52:37;;;;;;;5.67;3.77;;;;;;;;;;4991105;28;20212;-59
2021/12/26 11:55:24;;;;;;;3.87;3.13;;;;;;;;;;5000672;28;20298;-59
2021/12/26 11:58:00;;;;;;;1.00;1.00;;;;;;;;;;5002478;28;20231;-59
2021/12/26 12:00:28;;;;;;;4.83;3.00;;;;;;;;;;5005191;28;20212;-58
2021/12/26 12:02:56;;;;;;;2.33;1.83;;;;;;;;;;4995641;28;20592;-58
2021/12/26 12:05:24;;;;;;;2.17;1.37;;;;;;;;;;5010717;28;20215;-59
2021/12/26 12:07:52;;;;;;;2.00;1.00;;;;;;;;;;5010160;28;20742;-58
2021/12/26 12:10:34;;;;;;;3.20;1.73;;;;;;;;;;5005340;28;20234;-59
2021/12/26 12:13:01;;;;;;;5.33;2.53;;;;;;;;;;4995901;28;20274;-59
2021/12/26 12:15:41;;;;;;;6.80;2.80;;;;;;;;;;5001637;28;20216;-59
2021/12/26 12:18:10;;;;;;;1.83;1.73;;;;;;;;;;4986562;28;20239;-63
2021/12/26 12:20:37;;;;;;;1.10;0.97;;;;;;;;;;4989243;28;20219;-60
2021/12/26 12:23:12;;;;;;;6.27;2.77;;;;;;;;;;4984828;28;20212;-59
2021/12/26 12:25:41;;;;;;;3.73;2.03;;;;;;;;;;4997600;28;20524;-59
2021/12/26 12:28:09;;;;;;;3.20;2.93;;;;;;;;;;4986369;28;20568;-59
2021/12/26 12:30:37;;;;;;;3.43;2.70;;;;;;;;;;4994161;28;20298;-59
2021/12/26 12:33:14;;;;;;;2.20;1.93;;;;;;;;;;4995019;28;20213;-59
2021/12/26 12:35:55;;;;;;;3.67;2.03;;;;;;;;;;5004323;28;20589;-59
2021/12/26 12:38:25;;;;;;;2.87;1.87;;;;;;;;;;4990288;28;20234;-59
2021/12/26 12:40:54;;;;;;;2.43;2.13;;;;;;;;;;4999911;28;20691;-60
2021/12/26 12:43:23;;;;;;;0.83;0.83;;;;;;;;;;4995710;28;20599;-59
2021/12/26 12:46:01;;;;;;;0.57;0.57;;;;;;;;;;4988153;28;20297;-59
2021/12/26 12:48:30;;;;;;;6.57;2.10;;;;;;;;;;5004627;28;20329;-59
2021/12/26 12:50:58;;;;;;;6.53;2.77;;;;;;;;;;4995110;28;20247;-59
2021/12/26 12:53:41;;;;;;;3.13;2.83;;;;;;;;;;4985974;28;20219;-59
2021/12/26 12:56:10;;;;;;;5.63;4.20;;;;;;;;;;4993045;28;20792;-59
2021/12/26 12:58:37;;;;;;;3.33;2.00;;;;;;;;;;4996564;28;20243;-59
2021/12/26 13:01:05;;;;;;;1.90;1.17;;;;;;;;;;5004526;28;20215;-59
2021/12/26 13:03:36;;;;;;;3.33;2.47;;;;;;;;;;5004527;28;20202;-59
2021/12/26 13:06:07;;;;;;;7.13;3.73;;;;;;;;;;5001762;28;20215;-59
2021/12/26 13:08:34;;;;;;;6.23;2.63;;;;;;;;;;4989875;28;20377;-60
2021/12/26 13:11:02;;;;;;;3.47;3.03;;;;;;;;;;4997483;28;20224;-59
2021/12/26 13:13:31;;;;;;;0.43;0.43;;;;;;;;;;4981863;28;20216;-59
2021/12/26 13:15:59;;;;;;;5.57;3.43;;;;;;;;;;4989061;28;20225;-58
2021/12/26 13:18:27;;;;;;;4.13;2.87;;;;;;;;;;4996054;28;20226;-59
2021/12/26 13:20:55;;;;;;;1.70;1.60;;;;;;;;;;4999956;28;20768;-59
2021/12/26 13:23:23;;;;;;;3.87;1.23;;;;;;;;;;5002650;28;20211;-59
2021/12/26 13:25:51;;;;;;;5.80;1.97;;;;;;;;;;5002686;28;20210;-58
2021/12/26 13:28:19;;;;;;;5.60;1.67;;;;;;;;;;4993840;28;20218;-57
2021/12/26 13:30:50;;;;;;;2.03;1.47;;;;;;;;;;4988824;28;20218;-58
2021/12/26 13:33:18;;;;;;;4.33;2.23;;;;;;;;;;5004818;28;20633;-58
2021/12/26 13:35:45;;;;;;;1.50;0.83;;;;;;;;;;5004277;28;21047;-57
2021/12/26 13:38:12;;;;;;;8.37;3.63;;;;;;;;;;5003080;28;20244;-60
2021/12/26 13:40:41;;;;;;;5.07;2.43;;;;;;;;;;5004472;28;20219;-59
2021/12/26 13:43:08;;;;;;;2.43;2.10;;;;;;;;;;4997732;28;20211;-59
2021/12/26 13:45:37;;;;;;;3.33;2.73;;;;;;;;;;4986293;28;20220;-59
2021/12/26 13:48:06;;;;;;;1.00;1.00;;;;;;;;;;4987596;28;20206;-58
2021/12/26 13:50:34;;;;;;;4.17;1.90;;;;;;;;;;5000782;28;20295;-58
2021/12/26 13:53:02;;;;;;;3.67;3.20;;;;;;;;;;5000638;28;20221;-59
2021/12/26 13:55:33;;;;;;;1.90;1.80;;;;;;;;;;5002606;28;20206;-59
2021/12/26 13:58:00;;;;;;;2.23;1.97;;;;;;;;;;5004864;28;20236;-60
2021/12/26 14:00:27;;;;;;;5.07;3.13;;;;;;;;;;4994648;28;20214;-59
2021/12/26 14:02:54;;;;;;;3.07;1.97;;;;;;;;;;4985824;28;20229;-59
2021/12/26 14:05:23;;;;;;;1.47;1.40;;;;;;;;;;4997413;28;20214;-59
2021/12/26 14:07:58;;;;;;;4.37;2.93;;;;;;;;;;5005005;28;20686;-60
2021/12/26 14:10:27;;;;;;;1.83;1.73;;;;;;;;;;4995867;28;20212;-59
2021/12/26 14:12:59;;;;;;;6.00;3.70;;;;;;;;;;5000592;28;20230;-60
2021/12/26 14:15:28;;;;;;;1.67;1.33;;;;;;;;;;5005053;28;20217;-58
2021/12/26 14:17:56;;;;;;;9.37;3.40;;;;;;;;;;5004939;28;20297;-64
2021/12/26 14:20:26;;;;;;;2.53;2.33;;;;;;;;;;5001695;28;20237;-61
2021/12/26 14:22:53;;;;;;;9.57;4.03;;;;;;;;;;5004377;28;20210;-61
2021/12/26 14:25:20;;;;;;;5.33;3.73;;;;;;;;;;5004864;28;20203;-59
2021/12/26 14:27:47;;;;;;;1.43;1.30;;;;;;;;;;5007400;28;20210;-63
2021/12/26 14:30:14;;;;;;;8.57;3.73;;;;;;;;;;5004123;28;20214;-60
2021/12/26 14:32:41;;;;;;;2.90;2.57;;;;;;;;;;4989897;28;20207;-59
2021/12/26 14:35:15;;;;;;;4.07;2.47;;;;;;;;;;4989153;28;20218;-59
2021/12/26 14:37:43;;;;;;;5.70;2.83;;;;;;;;;;4992011;28;20230;-59
2021/12/26 14:40:11;;;;;;;5.43;3.20;;;;;;;;;;5007910;28;20212;-59
2021/12/26 14:42:43;;;;;;;3.10;2.20;;;;;;;;;;5008438;28;20209;-59
2021/12/26 14:45:14;;;;;;;2.83;2.63;;;;;;;;;;5007330;28;20831;-60
2021/12/26 14:47:42;;;;;;;0.73;0.73;;;;;;;;;;5002699;28;20258;-59
2021/12/26 14:50:10;;;;;;;4.53;2.83;;;;;;;;;;5006788;28;20257;-59
2021/12/26 14:52:42;;;;;;;3.63;3.20;;;;;;;;;;4988850;28;20203;-60
2021/12/26 14:55:14;;;;;;;3.33;2.83;;;;;;;;;;5005049;28;20744;-59